SWR550 LGMK-LSZH
Flight info
| Callsign | SWR550 |
|---|---|
| Flight time | N/A |
| Altitude | 35000 |
| Route | LGMK/34 N0461F340 VARI1C VARIX L995 KEA UL52 KUGGI DCT ELVAS UL53 GARTA DCT OLGAT DCT BELOV DCT ADOSA DCT MOVOR DCT TAGIP DCT RESIA Z50 KELIP KELI3G LSZH/14 |
| Aircraft | A320/M-V/N |
Departure
| Time | 2026-05-01 12:11 |
|---|---|
| Airport | Mykonos Island National Airport (LGMK) |
Arrival
| Time | N/A |
|---|---|
| Airport | Zürich Airport (LSZH) |
| Time | Latitude | Longitude | Altitude | Speed | Heading |
|---|---|---|---|---|---|
| 2026-05-01 11:40 | 37.43543 | 25.34628 | 407 ft | 0 kts | 251° |
| 2026-05-01 12:01 | 37.43543 | 25.34629 | 407 ft | 2 kts | 251° |
| 2026-05-01 12:01 | 37.43549 | 25.34649 | 406 ft | 2 kts | 251° |
| 2026-05-01 12:01 | 37.43554 | 25.34669 | 403 ft | 2 kts | 216° |
| 2026-05-01 12:02 | 37.43567 | 25.34676 | 406 ft | 0 kts | 166° |
| 2026-05-01 12:04 | 37.43566 | 25.34676 | 406 ft | 0 kts | 166° |
| 2026-05-01 12:05 | 37.43554 | 25.34680 | 405 ft | 4 kts | 165° |
| 2026-05-01 12:05 | 37.43480 | 25.34717 | 407 ft | 8 kts | 155° |
| 2026-05-01 12:05 | 37.43433 | 25.34752 | 408 ft | 8 kts | 138° |
| 2026-05-01 12:06 | 37.43406 | 25.34805 | 406 ft | 5 kts | 118° |
| 2026-05-01 12:06 | 37.43380 | 25.34865 | 411 ft | 11 kts | 127° |
| 2026-05-01 12:06 | 37.43315 | 25.34910 | 412 ft | 13 kts | 161° |
| 2026-05-01 12:06 | 37.43233 | 25.34946 | 412 ft | 14 kts | 161° |
| 2026-05-01 12:07 | 37.43148 | 25.34984 | 412 ft | 13 kts | 160° |
| 2026-05-01 12:07 | 37.43047 | 25.35028 | 410 ft | 18 kts | 161° |
| 2026-05-01 12:07 | 37.42932 | 25.35079 | 413 ft | 18 kts | 160° |
| 2026-05-01 12:07 | 37.42814 | 25.35130 | 411 ft | 15 kts | 161° |
| 2026-05-01 12:08 | 37.42734 | 25.35140 | 408 ft | 11 kts | 152° |
| 2026-05-01 12:08 | 37.42732 | 25.35163 | 410 ft | 1 kts | 38° |
| 2026-05-01 12:08 | 37.42744 | 25.35161 | 410 ft | 2 kts | 352° |
| 2026-05-01 12:08 | 37.42757 | 25.35157 | 407 ft | 2 kts | 343° |
| 2026-05-01 12:10 | 37.43491 | 25.34834 | 409 ft | 127 kts | 340° |
| 2026-05-01 12:10 | 37.44448 | 25.34410 | 801 ft | 150 kts | 341° |
| 2026-05-01 12:11 | 37.46404 | 25.33497 | 2217 ft | 159 kts | 343° |
| 2026-05-01 12:11 | 37.47506 | 25.32969 | 2465 ft | 182 kts | 342° |
| 2026-05-01 12:11 | 37.48750 | 25.32371 | 2898 ft | 194 kts | 343° |
| 2026-05-01 12:12 | 37.50026 | 25.31756 | 3600 ft | 198 kts | 342° |
| 2026-05-01 12:12 | 37.51295 | 25.31003 | 4087 ft | 215 kts | 329° |
| 2026-05-01 12:12 | 37.52395 | 25.29628 | 4705 ft | 229 kts | 310° |
| 2026-05-01 12:12 | 37.53086 | 25.27789 | 5498 ft | 238 kts | 289° |
| 2026-05-01 12:13 | 37.53232 | 25.25693 | 6267 ft | 245 kts | 266° |
| 2026-05-01 12:13 | 37.52936 | 25.23565 | 7010 ft | 248 kts | 261° |
| 2026-05-01 12:13 | 37.52614 | 25.21437 | 7757 ft | 248 kts | 262° |
| 2026-05-01 12:13 | 37.52061 | 25.19404 | 8014 ft | 246 kts | 242° |
| 2026-05-01 12:14 | 37.50904 | 25.17790 | 8263 ft | 258 kts | 221° |
| 2026-05-01 12:14 | 37.49554 | 25.16232 | 8706 ft | 266 kts | 242° |
| 2026-05-01 12:14 | 37.49040 | 25.14079 | 9439 ft | 258 kts | 274° |
| 2026-05-01 12:14 | 37.49479 | 25.11874 | 10091 ft | 264 kts | 289° |
| 2026-05-01 12:15 | 37.50053 | 25.09632 | 10482 ft | 279 kts | 285° |
| 2026-05-01 12:15 | 37.50573 | 25.07175 | 10645 ft | 302 kts | 283° |
| 2026-05-01 12:15 | 37.51075 | 25.04518 | 10834 ft | 320 kts | 282° |
| 2026-05-01 12:15 | 37.51572 | 25.01742 | 11358 ft | 328 kts | 282° |
| 2026-05-01 12:16 | 37.52073 | 24.98908 | 11976 ft | 332 kts | 282° |
| 2026-05-01 12:16 | 37.52580 | 24.96059 | 12663 ft | 334 kts | 282° |
| 2026-05-01 12:16 | 37.53097 | 24.93201 | 13330 ft | 336 kts | 282° |
| 2026-05-01 12:16 | 37.53627 | 24.90317 | 13979 ft | 339 kts | 282° |
| 2026-05-01 12:17 | 37.54161 | 24.87415 | 14565 ft | 341 kts | 282° |
| 2026-05-01 12:17 | 37.54690 | 24.84537 | 15136 ft | 343 kts | 282° |
| 2026-05-01 12:17 | 37.55231 | 24.81598 | 15715 ft | 345 kts | 282° |
| 2026-05-01 12:17 | 37.55773 | 24.78650 | 16284 ft | 347 kts | 281° |
| 2026-05-01 12:18 | 37.56315 | 24.75675 | 16860 ft | 349 kts | 281° |
| 2026-05-01 12:18 | 37.56859 | 24.72684 | 17430 ft | 351 kts | 281° |
| 2026-05-01 12:18 | 37.57406 | 24.69671 | 18005 ft | 354 kts | 281° |
| 2026-05-01 12:18 | 37.57958 | 24.66636 | 18543 ft | 356 kts | 281° |
| 2026-05-01 12:19 | 37.58509 | 24.63589 | 19055 ft | 358 kts | 281° |
| 2026-05-01 12:19 | 37.59063 | 24.60521 | 19561 ft | 359 kts | 281° |
| 2026-05-01 12:19 | 37.59614 | 24.57450 | 20078 ft | 360 kts | 281° |
| 2026-05-01 12:19 | 37.60171 | 24.54363 | 20559 ft | 361 kts | 281° |
| 2026-05-01 12:20 | 37.60728 | 24.51272 | 21063 ft | 362 kts | 281° |
| 2026-05-01 12:20 | 37.61287 | 24.48163 | 21547 ft | 364 kts | 281° |
| 2026-05-01 12:20 | 37.61844 | 24.45053 | 22010 ft | 365 kts | 281° |
| 2026-05-01 12:20 | 37.62406 | 24.41925 | 22464 ft | 366 kts | 281° |
| 2026-05-01 12:21 | 37.62972 | 24.38780 | 22907 ft | 367 kts | 281° |
| 2026-05-01 12:21 | 37.63539 | 24.35625 | 23338 ft | 369 kts | 281° |
| 2026-05-01 12:21 | 37.64107 | 24.32470 | 23757 ft | 370 kts | 281° |
| 2026-05-01 12:21 | 37.64674 | 24.29299 | 24112 ft | 370 kts | 281° |
| 2026-05-01 12:22 | 37.65238 | 24.26122 | 24474 ft | 371 kts | 281° |
| 2026-05-01 12:22 | 37.65799 | 24.22948 | 24832 ft | 371 kts | 281° |
| 2026-05-01 12:22 | 37.66363 | 24.19757 | 25186 ft | 372 kts | 281° |
| 2026-05-01 12:22 | 37.66924 | 24.16577 | 25533 ft | 372 kts | 281° |
| 2026-05-01 12:23 | 37.67491 | 24.13387 | 25879 ft | 372 kts | 281° |
| 2026-05-01 12:23 | 37.68058 | 24.10194 | 26225 ft | 372 kts | 281° |
| 2026-05-01 12:23 | 37.68621 | 24.07003 | 26552 ft | 373 kts | 281° |
| 2026-05-01 12:23 | 37.69183 | 24.03809 | 26867 ft | 373 kts | 281° |
| 2026-05-01 12:24 | 37.69744 | 24.00605 | 27178 ft | 374 kts | 281° |
| 2026-05-01 12:24 | 37.70301 | 23.97403 | 27475 ft | 374 kts | 281° |
| 2026-05-01 12:24 | 37.70859 | 23.94193 | 27749 ft | 375 kts | 281° |
| 2026-05-01 12:24 | 37.71422 | 23.90971 | 28036 ft | 375 kts | 281° |
| 2026-05-01 12:25 | 37.71983 | 23.87752 | 28308 ft | 376 kts | 281° |
| 2026-05-01 12:25 | 37.73109 | 23.81294 | 28828 ft | 377 kts | 281° |
| 2026-05-01 12:25 | 37.73665 | 23.78105 | 29070 ft | 377 kts | 281° |
| 2026-05-01 12:26 | 37.74228 | 23.74867 | 29324 ft | 377 kts | 281° |
| 2026-05-01 12:26 | 37.75343 | 23.68394 | 29981 ft | 373 kts | 281° |
| 2026-05-01 12:26 | 37.75883 | 23.65240 | 30293 ft | 371 kts | 281° |
| 2026-05-01 12:27 | 37.76428 | 23.62058 | 30552 ft | 369 kts | 281° |
| 2026-05-01 12:27 | 37.77515 | 23.55717 | 31023 ft | 368 kts | 281° |
| 2026-05-01 12:28 | 37.78598 | 23.49396 | 31406 ft | 369 kts | 281° |
| 2026-05-01 12:28 | 37.79140 | 23.46212 | 31529 ft | 370 kts | 282° |
| 2026-05-01 12:28 | 37.81161 | 23.40203 | 31943 ft | 376 kts | 296° |
| 2026-05-01 12:29 | 37.82504 | 23.37357 | 32141 ft | 375 kts | 296° |
| 2026-05-01 12:29 | 37.83835 | 23.34522 | 32353 ft | 375 kts | 296° |
| 2026-05-01 12:29 | 37.86488 | 23.28845 | 32762 ft | 374 kts | 295° |
| 2026-05-01 12:30 | 37.89131 | 23.23171 | 33220 ft | 373 kts | 295° |
| 2026-05-01 12:30 | 37.90444 | 23.20350 | 33433 ft | 372 kts | 295° |
| 2026-05-01 12:30 | 37.91755 | 23.17529 | 33646 ft | 371 kts | 295° |
| 2026-05-01 12:31 | 37.93061 | 23.14715 | 33856 ft | 371 kts | 295° |
| 2026-05-01 12:31 | 37.94367 | 23.11897 | 34077 ft | 370 kts | 295° |
| 2026-05-01 12:31 | 37.95660 | 23.09105 | 34173 ft | 372 kts | 295° |
| 2026-05-01 12:32 | 37.98305 | 23.03390 | 34163 ft | 378 kts | 295° |
| 2026-05-01 12:32 | 38.02330 | 22.94699 | 34165 ft | 384 kts | 295° |
| 2026-05-01 12:33 | 38.05033 | 22.88836 | 34166 ft | 386 kts | 295° |
| 2026-05-01 12:33 | 38.07744 | 22.82941 | 34163 ft | 387 kts | 295° |
| 2026-05-01 12:34 | 38.10443 | 22.77071 | 34168 ft | 387 kts | 295° |
| 2026-05-01 12:34 | 38.13158 | 22.71181 | 34166 ft | 386 kts | 295° |
| 2026-05-01 12:35 | 38.15844 | 22.65318 | 34168 ft | 380 kts | 295° |
| 2026-05-01 12:35 | 38.18487 | 22.59526 | 34168 ft | 378 kts | 295° |
| 2026-05-01 12:36 | 38.21123 | 22.53750 | 34160 ft | 378 kts | 295° |
| 2026-05-01 12:36 | 38.23753 | 22.47962 | 34160 ft | 378 kts | 295° |
| 2026-05-01 12:37 | 38.26382 | 22.42181 | 34153 ft | 377 kts | 295° |
| 2026-05-01 12:37 | 38.29002 | 22.36414 | 34156 ft | 375 kts | 295° |
| 2026-05-01 12:38 | 38.31612 | 22.30648 | 34150 ft | 375 kts | 295° |
| 2026-05-01 12:38 | 38.34215 | 22.24893 | 34150 ft | 375 kts | 295° |
| 2026-05-01 12:39 | 38.36813 | 22.19123 | 34139 ft | 376 kts | 295° |
| 2026-05-01 12:39 | 38.39416 | 22.13343 | 34141 ft | 376 kts | 295° |
| 2026-05-01 12:40 | 38.42015 | 22.07578 | 34147 ft | 374 kts | 294° |
| 2026-05-01 12:40 | 38.44605 | 22.01810 | 34126 ft | 374 kts | 295° |
| 2026-05-01 12:41 | 38.47188 | 21.96042 | 34143 ft | 375 kts | 294° |
| 2026-05-01 12:41 | 38.49776 | 21.90249 | 34115 ft | 376 kts | 294° |
| 2026-05-01 12:42 | 38.52344 | 21.84490 | 34131 ft | 375 kts | 295° |
| 2026-05-01 12:42 | 38.55159 | 21.78857 | 34098 ft | 377 kts | 298° |
| 2026-05-01 12:43 | 38.58189 | 21.73342 | 34112 ft | 380 kts | 299° |
| 2026-05-01 12:43 | 38.61213 | 21.67804 | 34106 ft | 379 kts | 298° |
| 2026-05-01 12:44 | 38.64178 | 21.62230 | 34105 ft | 379 kts | 298° |
| 2026-05-01 12:45 | 38.69974 | 21.51271 | 34088 ft | 365 kts | 298° |
| 2026-05-01 12:45 | 38.72814 | 21.45891 | 34095 ft | 365 kts | 298° |
| 2026-05-01 12:46 | 38.75649 | 21.40511 | 34076 ft | 364 kts | 297° |
| 2026-05-01 12:46 | 38.78479 | 21.35128 | 34076 ft | 364 kts | 297° |
| 2026-05-01 12:47 | 38.81308 | 21.29737 | 34074 ft | 364 kts | 297° |
| 2026-05-01 12:47 | 38.84134 | 21.24346 | 34073 ft | 364 kts | 297° |
| 2026-05-01 12:48 | 38.85550 | 21.21644 | 34190 ft | 364 kts | 297° |
| 2026-05-01 12:48 | 38.86960 | 21.18956 | 34401 ft | 363 kts | 298° |
| 2026-05-01 12:48 | 38.88368 | 21.16267 | 34662 ft | 361 kts | 298° |
| 2026-05-01 12:48 | 38.89765 | 21.13597 | 34935 ft | 359 kts | 298° |
| 2026-05-01 12:49 | 38.90684 | 21.11839 | 35120 ft | 357 kts | 298° |
| 2026-05-01 12:49 | 38.92068 | 21.09195 | 35405 ft | 354 kts | 298° |
| 2026-05-01 12:49 | 38.93433 | 21.06580 | 35679 ft | 352 kts | 298° |
| 2026-05-01 12:49 | 38.94795 | 21.03970 | 35877 ft | 352 kts | 298° |
| 2026-05-01 12:50 | 38.96154 | 21.01359 | 36022 ft | 353 kts | 298° |
| 2026-05-01 12:50 | 38.97522 | 20.98724 | 36082 ft | 356 kts | 298° |
| 2026-05-01 12:50 | 39.00627 | 20.93598 | 36058 ft | 370 kts | 304° |
| 2026-05-01 12:51 | 39.03993 | 20.88492 | 36057 ft | 378 kts | 304° |
| 2026-05-01 12:52 | 39.09153 | 20.80656 | 36061 ft | 385 kts | 304° |
| 2026-05-01 12:52 | 39.14358 | 20.72741 | 36054 ft | 386 kts | 304° |
| 2026-05-01 12:53 | 39.19561 | 20.64780 | 36055 ft | 387 kts | 304° |
| 2026-05-01 12:54 | 39.23037 | 20.59470 | 36063 ft | 387 kts | 304° |
| 2026-05-01 12:54 | 39.28227 | 20.51507 | 36091 ft | 386 kts | 304° |
| 2026-05-01 12:55 | 39.33426 | 20.43494 | 36041 ft | 390 kts | 304° |
| 2026-05-01 12:56 | 39.36893 | 20.38145 | 36025 ft | 392 kts | 304° |
| 2026-05-01 12:56 | 39.40398 | 20.32730 | 36022 ft | 393 kts | 304° |
| 2026-05-01 12:57 | 39.43908 | 20.27307 | 36026 ft | 393 kts | 304° |
| 2026-05-01 12:57 | 39.49180 | 20.19134 | 36042 ft | 395 kts | 304° |
| 2026-05-01 12:58 | 39.52692 | 20.13679 | 36048 ft | 394 kts | 304° |
| 2026-05-01 12:59 | 39.57960 | 20.05469 | 36075 ft | 395 kts | 305° |
| 2026-05-01 12:59 | 39.63257 | 19.97213 | 36044 ft | 398 kts | 305° |
| 2026-05-01 13:00 | 39.68580 | 19.88882 | 36041 ft | 400 kts | 305° |
| 2026-05-01 13:01 | 39.73904 | 19.80517 | 36043 ft | 401 kts | 305° |
| 2026-05-01 13:02 | 39.79247 | 19.72121 | 36039 ft | 402 kts | 305° |
| 2026-05-01 13:07 | 40.18515 | 19.09617 | 36093 ft | 408 kts | 306° |
| 2026-05-01 13:08 | 40.22096 | 19.03833 | 36076 ft | 409 kts | 306° |
| 2026-05-01 13:08 | 40.25838 | 18.98193 | 36085 ft | 413 kts | 311° |
| 2026-05-01 13:09 | 40.29901 | 18.92872 | 36083 ft | 413 kts | 311° |
| 2026-05-01 13:09 | 40.33954 | 18.87526 | 36088 ft | 413 kts | 311° |
| 2026-05-01 13:10 | 40.37998 | 18.82165 | 36103 ft | 414 kts | 311° |
| 2026-05-01 13:10 | 40.42045 | 18.76795 | 36100 ft | 414 kts | 311° |
| 2026-05-01 13:11 | 40.46109 | 18.71408 | 36107 ft | 415 kts | 311° |
| 2026-05-01 13:11 | 40.50176 | 18.65992 | 36107 ft | 416 kts | 311° |
| 2026-05-01 13:12 | 40.54225 | 18.60600 | 36103 ft | 417 kts | 311° |
| 2026-05-01 13:12 | 40.58302 | 18.55156 | 36115 ft | 418 kts | 311° |
| 2026-05-01 13:13 | 40.62379 | 18.49702 | 36120 ft | 418 kts | 311° |
| 2026-05-01 13:13 | 40.66461 | 18.44232 | 36122 ft | 418 kts | 311° |
| 2026-05-01 13:14 | 40.70542 | 18.38756 | 36128 ft | 419 kts | 311° |
| 2026-05-01 13:14 | 40.74630 | 18.33262 | 36147 ft | 420 kts | 312° |
| 2026-05-01 13:15 | 40.78725 | 18.27758 | 36137 ft | 421 kts | 312° |
| 2026-05-01 13:15 | 40.82822 | 18.22233 | 36138 ft | 421 kts | 312° |
| 2026-05-01 13:16 | 40.86912 | 18.16701 | 36141 ft | 421 kts | 312° |
| 2026-05-01 13:16 | 40.91005 | 18.11148 | 36154 ft | 422 kts | 312° |
| 2026-05-01 13:17 | 40.99196 | 18.00023 | 36175 ft | 422 kts | 312° |
| 2026-05-01 13:18 | 41.05312 | 17.91683 | 36167 ft | 423 kts | 312° |
| 2026-05-01 13:18 | 41.09422 | 17.86077 | 36175 ft | 424 kts | 312° |
| 2026-05-01 13:19 | 41.13527 | 17.80455 | 36179 ft | 424 kts | 312° |
| 2026-05-01 13:20 | 41.19679 | 17.72016 | 36175 ft | 424 kts | 312° |
| 2026-05-01 13:20 | 41.23773 | 17.66371 | 36173 ft | 424 kts | 312° |
| 2026-05-01 13:21 | 41.29932 | 17.57880 | 36169 ft | 426 kts | 313° |
| 2026-05-01 13:21 | 41.34043 | 17.52201 | 36171 ft | 427 kts | 313° |
| 2026-05-01 13:22 | 41.38165 | 17.46500 | 36171 ft | 427 kts | 313° |
| 2026-05-01 13:22 | 41.42285 | 17.40782 | 36174 ft | 428 kts | 313° |
| 2026-05-01 13:23 | 41.46406 | 17.35050 | 36171 ft | 429 kts | 313° |
| 2026-05-01 13:23 | 41.50534 | 17.29298 | 36181 ft | 429 kts | 313° |
| 2026-05-01 13:24 | 41.54664 | 17.23533 | 36184 ft | 430 kts | 313° |
| 2026-05-01 13:25 | 41.60860 | 17.14854 | 36201 ft | 430 kts | 313° |
| 2026-05-01 13:25 | 41.64999 | 17.09063 | 36206 ft | 431 kts | 313° |
| 2026-05-01 13:26 | 41.69128 | 17.03252 | 36201 ft | 431 kts | 313° |
| 2026-05-01 13:26 | 41.73252 | 16.97436 | 36208 ft | 431 kts | 313° |
| 2026-05-01 13:27 | 41.77379 | 16.91611 | 36219 ft | 431 kts | 313° |
| 2026-05-01 13:27 | 41.83550 | 16.82900 | 36220 ft | 431 kts | 313° |
| 2026-05-01 13:28 | 41.89730 | 16.74116 | 36223 ft | 432 kts | 313° |
| 2026-05-01 13:29 | 41.97970 | 16.62381 | 36220 ft | 432 kts | 314° |
| 2026-05-01 13:31 | 42.09645 | 16.45700 | 36223 ft | 433 kts | 314° |
| 2026-05-01 13:32 | 42.19933 | 16.30865 | 36218 ft | 433 kts | 314° |
| 2026-05-01 13:33 | 42.30242 | 16.15977 | 36234 ft | 435 kts | 314° |
| 2026-05-01 13:34 | 42.38491 | 16.03981 | 36242 ft | 436 kts | 314° |
| 2026-05-01 13:35 | 42.44670 | 15.94956 | 36226 ft | 436 kts | 315° |
| 2026-05-01 13:36 | 42.50856 | 15.85935 | 36237 ft | 436 kts | 315° |
| 2026-05-01 13:36 | 42.57039 | 15.76859 | 36240 ft | 437 kts | 315° |
| 2026-05-01 13:37 | 42.61172 | 15.70784 | 36243 ft | 438 kts | 315° |
| 2026-05-01 13:37 | 42.65303 | 15.64699 | 36251 ft | 438 kts | 315° |
| 2026-05-01 13:38 | 42.71503 | 15.55539 | 36251 ft | 439 kts | 315° |